sensor_id;sensor_type;location;lat;lon;timestamp;pressure;altitude;pressure_sealevel;temperature;humidity
78839;BME280;68405;47.190;27.558;2024-01-15T00:01:06;98798.64;;;-1.43;55.40
78839;BME280;68405;47.190;27.558;2024-01-15T00:03:58;98796.95;;;-1.43;55.45
78839;BME280;68405;47.190;27.558;2024-01-15T00:06:30;98792.52;;;-1.42;55.53
78839;BME280;68405;47.190;27.558;2024-01-15T00:09:03;98792.34;;;-1.44;55.29
78839;BME280;68405;47.190;27.558;2024-01-15T00:11:36;98794.21;;;-1.43;55.29
78839;BME280;68405;47.190;27.558;2024-01-15T00:14:07;98790.64;;;-1.41;55.45
78839;BME280;68405;47.190;27.558;2024-01-15T00:16:41;98788.94;;;-1.42;55.56
78839;BME280;68405;47.190;27.558;2024-01-15T00:19:13;98786.56;;;-1.45;54.99
78839;BME280;68405;47.190;27.558;2024-01-15T00:21:44;98781.29;;;-1.46;55.67
78839;BME280;68405;47.190;27.558;2024-01-15T00:24:16;98774.83;;;-1.48;55.44
78839;BME280;68405;47.190;27.558;2024-01-15T00:26:47;98766.67;;;-1.54;55.36
78839;BME280;68405;47.190;27.558;2024-01-15T00:29:19;98763.98;;;-1.59;55.32
78839;BME280;68405;47.190;27.558;2024-01-15T00:31:54;98764.65;;;-1.63;55.15
78839;BME280;68405;47.190;27.558;2024-01-15T00:34:26;98761.44;;;-1.68;55.43
78839;BME280;68405;47.190;27.558;2024-01-15T00:36:57;98759.40;;;-1.68;54.75
78839;BME280;68405;47.190;27.558;2024-01-15T00:39:28;98753.95;;;-1.68;55.06
78839;BME280;68405;47.190;27.558;2024-01-15T00:42:01;98754.63;;;-1.66;54.80
78839;BME280;68405;47.190;27.558;2024-01-15T00:44:39;98752.92;;;-1.66;54.78
78839;BME280;68405;47.190;27.558;2024-01-15T00:47:10;98747.48;;;-1.67;54.71
78839;BME280;68405;47.190;27.558;2024-01-15T00:49:41;98745.95;;;-1.67;54.69
78839;BME280;68405;47.190;27.558;2024-01-15T00:52:13;98744.08;;;-1.69;54.84
78839;BME280;68405;47.190;27.558;2024-01-15T00:54:45;98745.45;;;-1.70;55.18
78839;BME280;68405;47.190;27.558;2024-01-15T00:57:16;98749.36;;;-1.70;55.10
78839;BME280;68405;47.190;27.558;2024-01-15T00:59:49;98744.60;;;-1.71;55.26
78839;BME280;68405;47.190;27.558;2024-01-15T01:02:20;98749.19;;;-1.72;55.32
78839;BME280;68405;47.190;27.558;2024-01-15T01:04:52;98752.10;;;-1.76;55.38
78839;BME280;68405;47.190;27.558;2024-01-15T01:07:23;98752.61;;;-1.80;55.46
78839;BME280;68405;47.190;27.558;2024-01-15T01:09:54;98748.39;;;-1.82;55.48
78839;BME280;68405;47.190;27.558;2024-01-15T01:12:26;98745.84;;;-1.84;55.09
78839;BME280;68405;47.190;27.558;2024-01-15T01:14:57;98747.89;;;-1.86;55.21
78839;BME280;68405;47.190;27.558;2024-01-15T01:17:29;98741.08;;;-1.86;55.50
78839;BME280;68405;47.190;27.558;2024-01-15T01:20:01;98743.79;;;-1.87;55.38
78839;BME280;68405;47.190;27.558;2024-01-15T01:22:34;98745.52;;;-1.91;55.61
78839;BME280;68405;47.190;27.558;2024-01-15T01:25:06;98744.83;;;-1.92;55.18
78839;BME280;68405;47.190;27.558;2024-01-15T01:27:38;98739.04;;;-1.93;55.29
78839;BME280;68405;47.190;27.558;2024-01-15T01:30:10;98735.81;;;-1.91;55.26
78839;BME280;68405;47.190;27.558;2024-01-15T01:32:42;98731.71;;;-1.89;55.35
78839;BME280;68405;47.190;27.558;2024-01-15T01:35:14;98725.75;;;-1.87;55.35
78839;BME280;68405;47.190;27.558;2024-01-15T01:37:45;98721.66;;;-1.85;55.34
78839;BME280;68405;47.190;27.558;2024-01-15T01:40:17;98717.73;;;-1.83;55.36
78839;BME280;68405;47.190;27.558;2024-01-15T01:42:48;98719.09;;;-1.80;55.31
78839;BME280;68405;47.190;27.558;2024-01-15T01:45:20;98712.45;;;-1.77;55.74
78839;BME280;68405;47.190;27.558;2024-01-15T01:47:51;98713.29;;;-1.74;55.82
78839;BME280;68405;47.190;27.558;2024-01-15T01:50:23;98716.01;;;-1.71;55.87
78839;BME280;68405;47.190;27.558;2024-01-15T01:52:54;98718.56;;;-1.71;56.02
78839;BME280;68405;47.190;27.558;2024-01-15T01:55:28;98720.09;;;-1.71;56.24
78839;BME280;68405;47.190;27.558;2024-01-15T01:58:01;98720.43;;;-1.74;56.00
78839;BME280;68405;47.190;27.558;2024-01-15T02:00:33;98721.98;;;-1.77;55.51
78839;BME280;68405;47.190;27.558;2024-01-15T02:03:06;98722.35;;;-1.84;55.87
78839;BME280;68405;47.190;27.558;2024-01-15T02:05:38;98725.09;;;-1.93;55.63
78839;BME280;68405;47.190;27.558;2024-01-15T02:08:10;98726.30;;;-1.98;55.20
78839;BME280;68405;47.190;27.558;2024-01-15T02:10:42;98728.52;;;-2.04;55.66
78839;BME280;68405;47.190;27.558;2024-01-15T02:16:26;98717.67;;;-2.16;55.79
78839;BME280;68405;47.190;27.558;2024-01-15T02:23:17;98710.70;;;-2.26;55.51
78839;BME280;68405;47.190;27.558;2024-01-15T02:25:49;98709.02;;;-2.25;55.64
78839;BME280;68405;47.190;27.558;2024-01-15T02:28:21;98701.87;;;-2.25;55.74
78839;BME280;68405;47.190;27.558;2024-01-15T02:30:52;98695.57;;;-2.22;55.28
78839;BME280;68405;47.190;27.558;2024-01-15T02:33:24;98695.55;;;-2.18;55.82
78839;BME280;68405;47.190;27.558;2024-01-15T02:35:55;98687.21;;;-2.12;55.59
78839;BME280;68405;47.190;27.558;2024-01-15T02:38:27;98683.80;;;-2.09;55.54
78839;BME280;68405;47.190;27.558;2024-01-15T02:40:58;98683.80;;;-2.07;55.63
78839;BME280;68405;47.190;27.558;2024-01-15T02:43:30;98678.52;;;-2.08;55.88
78839;BME280;68405;47.190;27.558;2024-01-15T02:46:01;98684.98;;;-2.11;56.06
78839;BME280;68405;47.190;27.558;2024-01-15T02:48:33;98683.13;;;-2.13;56.11
78839;BME280;68405;47.190;27.558;2024-01-15T02:51:05;98679.91;;;-2.17;56.01
78839;BME280;68405;47.190;27.558;2024-01-15T02:53:37;98685.70;;;-2.22;56.46
78839;BME280;68405;47.190;27.558;2024-01-15T02:56:10;98683.84;;;-2.27;56.25
78839;BME280;68405;47.190;27.558;2024-01-15T02:58:41;98684.02;;;-2.32;56.39
78839;BME280;68405;47.190;27.558;2024-01-15T03:01:12;98683.00;;;-2.34;56.45
78839;BME280;68405;47.190;27.558;2024-01-15T03:03:44;98685.58;;;-2.35;56.46
78839;BME280;68405;47.190;27.558;2024-01-15T03:06:15;98676.55;;;-2.36;56.66
78839;BME280;68405;47.190;27.558;2024-01-15T03:08:47;98669.58;;;-2.34;56.23
78839;BME280;68405;47.190;27.558;2024-01-15T03:11:18;98665.83;;;-2.33;56.48
78839;BME280;68405;47.190;27.558;2024-01-15T03:13:50;98660.06;;;-2.35;56.77
78839;BME280;68405;47.190;27.558;2024-01-15T03:16:22;98653.76;;;-2.36;56.32
78839;BME280;68405;47.190;27.558;2024-01-15T03:18:53;98642.70;;;-2.36;56.42
78839;BME280;68405;47.190;27.558;2024-01-15T03:21:24;98647.80;;;-2.34;56.68
78839;BME280;68405;47.190;27.558;2024-01-15T03:23:56;98648.65;;;-2.31;56.74
78839;BME280;68405;47.190;27.558;2024-01-15T03:26:27;98650.35;;;-2.30;56.92
78839;BME280;68405;47.190;27.558;2024-01-15T03:28:59;98647.98;;;-2.32;56.64
78839;BME280;68405;47.190;27.558;2024-01-15T03:31:31;98652.22;;;-2.32;56.76
78839;BME280;68405;47.190;27.558;2024-01-15T03:34:02;98652.23;;;-2.35;56.78
78839;BME280;68405;47.190;27.558;2024-01-15T03:36:34;98651.90;;;-2.39;56.82
78839;BME280;68405;47.190;27.558;2024-01-15T03:39:06;98653.61;;;-2.44;57.21
78839;BME280;68405;47.190;27.558;2024-01-15T03:41:37;98663.82;;;-2.47;56.76
78839;BME280;68405;47.190;27.558;2024-01-15T03:44:09;98672.84;;;-2.54;57.53
78839;BME280;68405;47.190;27.558;2024-01-15T03:46:40;98675.73;;;-2.62;57.41
78839;BME280;68405;47.190;27.558;2024-01-15T03:49:12;98673.54;;;-2.69;57.64
78839;BME280;68405;47.190;27.558;2024-01-15T03:51:44;98671.33;;;-2.73;57.71
78839;BME280;68405;47.190;27.558;2024-01-15T03:54:15;98666.91;;;-2.79;57.77
78839;BME280;68405;47.190;27.558;2024-01-15T03:56:47;98671.50;;;-2.82;57.60
78839;BME280;68405;47.190;27.558;2024-01-15T03:59:18;98666.23;;;-2.85;57.36
78839;BME280;68405;47.190;27.558;2024-01-15T04:01:53;98666.06;;;-2.90;57.57
78839;BME280;68405;47.190;27.558;2024-01-15T04:04:24;98664.36;;;-2.98;57.66
78839;BME280;68405;47.190;27.558;2024-01-15T04:06:56;98658.41;;;-3.06;58.05
78839;BME280;68405;47.190;27.558;2024-01-15T04:09:27;98656.88;;;-3.11;58.24
78839;BME280;68405;47.190;27.558;2024-01-15T04:11:59;98652.29;;;-3.17;58.78
78839;BME280;68405;47.190;27.558;2024-01-15T04:14:30;98655.17;;;-3.19;58.67
78839;BME280;68405;47.190;27.558;2024-01-15T04:17:02;98659.77;;;-3.19;59.10
78839;BME280;68405;47.190;27.558;2024-01-15T04:19:33;98655.68;;;-3.21;58.95
78839;BME280;68405;47.190;27.558;2024-01-15T04:22:05;98655.33;;;-3.26;58.89
78839;BME280;68405;47.190;27.558;2024-01-15T04:24:37;98653.80;;;-3.32;59.05
78839;BME280;68405;47.190;27.558;2024-01-15T04:27:08;98654.13;;;-3.39;58.77
78839;BME280;68405;47.190;27.558;2024-01-15T04:29:40;98654.64;;;-3.43;59.14
78839;BME280;68405;47.190;27.558;2024-01-15T04:32:14;98653.10;;;-3.44;58.89
78839;BME280;68405;47.190;27.558;2024-01-15T04:34:46;98653.25;;;-3.46;58.93
78839;BME280;68405;47.190;27.558;2024-01-15T04:37:18;98649.70;;;-3.49;58.95
78839;BME280;68405;47.190;27.558;2024-01-15T04:39:49;98641.55;;;-3.48;59.28
78839;BME280;68405;47.190;27.558;2024-01-15T04:42:23;98637.98;;;-3.47;59.45
78839;BME280;68405;47.190;27.558;2024-01-15T04:44:54;98643.08;;;-3.46;59.72
78839;BME280;68405;47.190;27.558;2024-01-15T04:47:27;98644.95;;;-3.45;59.70
78839;BME280;68405;47.190;27.558;2024-01-15T04:49:58;98645.11;;;-3.49;59.58
78839;BME280;68405;47.190;27.558;2024-01-15T04:52:30;98645.60;;;-3.56;59.23
78839;BME280;68405;47.190;27.558;2024-01-15T04:55:01;98642.36;;;-3.65;59.23
78839;BME280;68405;47.190;27.558;2024-01-15T04:57:32;98648.63;;;-3.68;59.73
78839;BME280;68405;47.190;27.558;2024-01-15T05:00:05;98637.09;;;-3.69;59.65
78839;BME280;68405;47.190;27.558;2024-01-15T05:02:37;98639.13;;;-3.71;59.35
78839;BME280;68405;47.190;27.558;2024-01-15T05:05:08;98636.91;;;-3.74;59.75
78839;BME280;68405;47.190;27.558;2024-01-15T05:07:40;98637.41;;;-3.79;59.69
78839;BME280;68405;47.190;27.558;2024-01-15T05:10:11;98641.45;;;-3.84;60.25
78839;BME280;68405;47.190;27.558;2024-01-15T05:12:43;98643.30;;;-3.89;60.44
78839;BME280;68405;47.190;27.558;2024-01-15T05:15:17;98646.02;;;-3.90;60.91
78839;BME280;68405;47.190;27.558;2024-01-15T05:17:49;98647.89;;;-3.85;60.78
78839;BME280;68405;47.190;27.558;2024-01-15T05:20:27;98646.73;;;-3.79;60.69
78839;BME280;68405;47.190;27.558;2024-01-15T05:23:10;98642.16;;;-3.77;60.77
78839;BME280;68405;47.190;27.558;2024-01-15T05:25:58;98641.81;;;-3.77;60.95
78839;BME280;68405;47.190;27.558;2024-01-15T05:28:44;98643.52;;;-3.75;61.12
78839;BME280;68405;47.190;27.558;2024-01-15T05:31:33;98642.17;;;-3.72;61.35
78839;BME280;68405;47.190;27.558;2024-01-15T05:41:41;98634.05;;;-3.63;60.71
78839;BME280;68405;47.190;27.558;2024-01-15T05:44:33;98630.65;;;-3.64;60.66
78839;BME280;68405;47.190;27.558;2024-01-15T05:47:10;98627.77;;;-3.63;60.44
78839;BME280;68405;47.190;27.558;2024-01-15T05:49:57;98626.42;;;-3.63;60.53
78839;BME280;68405;47.190;27.558;2024-01-15T05:52:51;98619.11;;;-3.63;60.69
78839;BME280;68405;47.190;27.558;2024-01-15T05:55:57;98617.27;;;-3.63;60.82
78839;BME280;68405;47.190;27.558;2024-01-15T05:58:52;98607.92;;;-3.61;60.70
78839;BME280;68405;47.190;27.558;2024-01-15T06:01:54;98609.46;;;-3.56;60.84
78839;BME280;68405;47.190;27.558;2024-01-15T06:04:32;98608.62;;;-3.51;61.19
78839;BME280;68405;47.190;27.558;2024-01-15T06:07:12;98612.36;;;-3.44;60.62
78839;BME280;68405;47.190;27.558;2024-01-15T06:09:51;98621.02;;;-3.41;60.66
78839;BME280;68405;47.190;27.558;2024-01-15T06:15:52;98601.51;;;-3.29;60.66
78839;BME280;68405;47.190;27.558;2024-01-15T06:18:41;98598.63;;;-3.18;60.47
78839;BME280;68405;47.190;27.558;2024-01-15T06:21:19;98590.64;;;-3.04;60.32
78839;BME280;68405;47.190;27.558;2024-01-15T06:24:02;98587.40;;;-2.89;60.00
78839;BME280;68405;47.190;27.558;2024-01-15T06:44:38;98586.05;;;-0.12;56.71
78839;BME280;68405;47.190;27.558;2024-01-15T06:47:11;98578.27;;;0.58;55.70
78839;BME280;68405;47.190;27.558;2024-01-15T06:49:45;98571.27;;;1.48;54.82
78839;BME280;68405;47.190;27.558;2024-01-15T06:52:23;98568.15;;;2.57;53.59
78839;BME280;68405;47.190;27.558;2024-01-15T06:54:55;98565.27;;;3.39;51.82
78839;BME280;68405;47.190;27.558;2024-01-15T06:57:26;98558.36;;;3.84;51.16
78839;BME280;68405;47.190;27.558;2024-01-15T06:59:59;98563.48;;;4.55;50.21
78839;BME280;68405;47.190;27.558;2024-01-15T07:02:33;98563.38;;;4.59;49.69
78839;BME280;68405;47.190;27.558;2024-01-15T07:05:05;98560.39;;;4.38;47.91
78839;BME280;68405;47.190;27.558;2024-01-15T07:07:37;98553.06;;;3.96;48.65
78839;BME280;68405;47.190;27.558;2024-01-15T07:31:39;98573.11;;;2.94;47.79
78839;BME280;68405;47.190;27.558;2024-01-15T07:34:13;98569.02;;;2.93;47.76
78839;BME280;68405;47.190;27.558;2024-01-15T07:37:01;98577.13;;;2.91;47.73
78839;BME280;68405;47.190;27.558;2024-01-15T07:46:34;98566.02;;;2.75;47.34
78839;BME280;68405;47.190;27.558;2024-01-15T07:49:16;98562.56;;;2.98;47.65
78839;BME280;68405;47.190;27.558;2024-01-15T07:51:59;98555.41;;;3.16;47.65
78839;BME280;68405;47.190;27.558;2024-01-15T07:54:37;98543.01;;;3.37;47.59
78839;BME280;68405;47.190;27.558;2024-01-15T08:00:07;98538.63;;;3.66;47.81
78839;BME280;68405;47.190;27.558;2024-01-15T08:02:39;98539.31;;;3.84;47.98
78839;BME280;68405;47.190;27.558;2024-01-15T08:05:10;98537.08;;;4.02;47.81
78839;BME280;68405;47.190;27.558;2024-01-15T08:07:41;98527.66;;;4.18;47.39
78839;BME280;68405;47.190;27.558;2024-01-15T08:10:14;98521.18;;;4.16;47.11
78839;BME280;68405;47.190;27.558;2024-01-15T08:12:47;98514.70;;;4.20;46.14
78839;BME280;68405;47.190;27.558;2024-01-15T08:15:19;98513.29;;;4.05;45.73
78839;BME280;68405;47.190;27.558;2024-01-15T08:17:51;98514.65;;;3.99;45.31
78839;BME280;68405;47.190;27.558;2024-01-15T08:20:22;98518.04;;;3.95;44.88
78839;BME280;68405;47.190;27.558;2024-01-15T08:22:58;98512.43;;;3.93;44.72
78839;BME280;68405;47.190;27.558;2024-01-15T08:25:30;98505.38;;;3.93;43.84
78839;BME280;68405;47.190;27.558;2024-01-15T08:28:01;98512.46;;;3.92;44.56
78839;BME280;68405;47.190;27.558;2024-01-15T08:30:33;98518.64;;;3.98;43.89
78839;BME280;68405;47.190;27.558;2024-01-15T08:33:06;98515.51;;;3.93;43.73
78839;BME280;68405;47.190;27.558;2024-01-15T08:35:37;98513.49;;;3.92;43.76
78839;BME280;68405;47.190;27.558;2024-01-15T08:38:09;98507.09;;;4.16;43.91
78839;BME280;68405;47.190;27.558;2024-01-15T08:40:40;98495.59;;;4.38;43.93
78839;BME280;68405;47.190;27.558;2024-01-15T08:43:11;98490.66;;;4.63;43.67
78839;BME280;68405;47.190;27.558;2024-01-15T08:45:43;98489.17;;;4.98;43.79
78839;BME280;68405;47.190;27.558;2024-01-15T08:48:15;98485.64;;;5.44;43.30
78839;BME280;68405;47.190;27.558;2024-01-15T08:50:47;98480.55;;;5.98;42.58
78839;BME280;68405;47.190;27.558;2024-01-15T08:53:19;98473.77;;;6.66;43.10
78839;BME280;68405;47.190;27.558;2024-01-15T08:56:02;98465.09;;;7.67;42.86
78839;BME280;68405;47.190;27.558;2024-01-15T08:58:39;98461.33;;;8.19;41.14
78839;BME280;68405;47.190;27.558;2024-01-15T09:01:11;98462.55;;;8.44;40.30
78839;BME280;68405;47.190;27.558;2024-01-15T09:03:51;98452.66;;;8.41;39.08
78839;BME280;68405;47.190;27.558;2024-01-15T09:09:44;98436.64;;;8.40;38.09
78839;BME280;68405;47.190;27.558;2024-01-15T09:15:27;98429.46;;;7.76;38.52
78839;BME280;68405;47.190;27.558;2024-01-15T09:18:53;98427.06;;;7.41;37.92
78839;BME280;68405;47.190;27.558;2024-01-15T09:21:32;98425.73;;;6.88;38.25
78839;BME280;68405;47.190;27.558;2024-01-15T09:24:11;98417.75;;;6.69;38.68
78839;BME280;68405;47.190;27.558;2024-01-15T09:26:47;98428.81;;;6.56;38.39
78839;BME280;68405;47.190;27.558;2024-01-15T09:32:33;98416.73;;;6.05;39.12
78839;BME280;68405;47.190;27.558;2024-01-15T09:35:10;98419.92;;;5.97;39.31
78839;BME280;68405;47.190;27.558;2024-01-15T09:38:04;98412.88;;;5.84;39.13
78839;BME280;68405;47.190;27.558;2024-01-15T09:40:54;98404.66;;;5.60;39.45
78839;BME280;68405;47.190;27.558;2024-01-15T09:43:30;98398.90;;;5.48;39.95
78839;BME280;68405;47.190;27.558;2024-01-15T09:46:26;98398.00;;;5.49;39.99
78839;BME280;68405;47.190;27.558;2024-01-15T09:52:16;98377.68;;;5.17;40.56
78839;BME280;68405;47.190;27.558;2024-01-15T09:54:54;98367.52;;;5.07;40.73
78839;BME280;68405;47.190;27.558;2024-01-15T10:00:48;98364.89;;;4.75;41.24
78839;BME280;68405;47.190;27.558;2024-01-15T10:03:37;98353.31;;;4.62;41.67
78839;BME280;68405;47.190;27.558;2024-01-15T10:06:34;98334.91;;;4.57;41.87
78839;BME280;68405;47.190;27.558;2024-01-15T10:12:26;98324.27;;;4.57;42.48
78839;BME280;68405;47.190;27.558;2024-01-15T10:15:16;98319.52;;;4.69;42.24
78839;BME280;68405;47.190;27.558;2024-01-15T10:23:47;98311.88;;;4.62;42.44
78839;BME280;68405;47.190;27.558;2024-01-15T10:26:20;98305.98;;;4.39;42.69
78839;BME280;68405;47.190;27.558;2024-01-15T10:28:57;98305.70;;;4.31;42.88
78839;BME280;68405;47.190;27.558;2024-01-15T10:31:33;98308.22;;;4.29;43.07
78839;BME280;68405;47.190;27.558;2024-01-15T10:34:18;98306.57;;;4.21;43.27
78839;BME280;68405;47.190;27.558;2024-01-15T10:37:00;98302.08;;;4.12;43.49
78839;BME280;68405;47.190;27.558;2024-01-15T10:39:40;98297.56;;;4.08;43.66
78839;BME280;68405;47.190;27.558;2024-01-15T10:42:36;98294.65;;;4.03;43.93
78839;BME280;68405;47.190;27.558;2024-01-15T10:45:36;98290.94;;;3.96;44.19
78839;BME280;68405;47.190;27.558;2024-01-15T10:48:12;98288.24;;;3.88;44.48
78839;BME280;68405;47.190;27.558;2024-01-15T10:50:46;98294.97;;;3.82;44.60
78839;BME280;68405;47.190;27.558;2024-01-15T10:53:21;98288.23;;;3.79;44.86
78839;BME280;68405;47.190;27.558;2024-01-15T10:56:07;98281.05;;;3.72;45.23
78839;BME280;68405;47.190;27.558;2024-01-15T10:58:51;98271.55;;;3.63;45.45
78839;BME280;68405;47.190;27.558;2024-01-15T11:01:28;98267.95;;;3.58;45.61
78839;BME280;68405;47.190;27.558;2024-01-15T11:04:48;98259.30;;;3.60;45.70
78839;BME280;68405;47.190;27.558;2024-01-15T11:07:23;98257.25;;;3.60;45.83
78839;BME280;68405;47.190;27.558;2024-01-15T11:10:08;98250.71;;;3.60;45.90
78839;BME280;68405;47.190;27.558;2024-01-15T11:13:10;98246.27;;;3.59;46.20
78839;BME280;68405;47.190;27.558;2024-01-15T11:16:02;98249.16;;;3.61;46.25
78839;BME280;68405;47.190;27.558;2024-01-15T11:21:26;98239.77;;;3.59;46.65
78839;BME280;68405;47.190;27.558;2024-01-15T11:24:01;98229.03;;;3.57;46.72
78839;BME280;68405;47.190;27.558;2024-01-15T11:26:43;98234.71;;;3.56;46.94
78839;BME280;68405;47.190;27.558;2024-01-15T11:29:32;98229.58;;;3.55;46.82
78839;BME280;68405;47.190;27.558;2024-01-15T11:32:08;98228.61;;;3.54;47.24
78839;BME280;68405;47.190;27.558;2024-01-15T11:35:06;98226.52;;;3.55;47.23
78839;BME280;68405;47.190;27.558;2024-01-15T11:38:01;98226.66;;;3.55;47.35
78839;BME280;68405;47.190;27.558;2024-01-15T11:40:42;98232.20;;;3.59;47.46
78839;BME280;68405;47.190;27.558;2024-01-15T11:43:17;98231.75;;;3.62;47.38
78839;BME280;68405;47.190;27.558;2024-01-15T11:45:53;98232.55;;;3.70;47.40
78839;BME280;68405;47.190;27.558;2024-01-15T11:48:40;98233.39;;;3.76;47.35
78839;BME280;68405;47.190;27.558;2024-01-15T11:51:14;98233.08;;;3.84;47.43
78839;BME280;68405;47.190;27.558;2024-01-15T11:53:50;98236.67;;;3.90;47.29
78839;BME280;68405;47.190;27.558;2024-01-15T11:56:24;98233.80;;;3.94;47.21
78839;BME280;68405;47.190;27.558;2024-01-15T11:58:56;98234.45;;;4.00;47.19
78839;BME280;68405;47.190;27.558;2024-01-15T12:01:28;98220.98;;;4.07;47.15
78839;BME280;68405;47.190;27.558;2024-01-15T12:03:59;98214.63;;;4.07;46.98
78839;BME280;68405;47.190;27.558;2024-01-15T12:06:32;98211.58;;;4.10;47.08
78839;BME280;68405;47.190;27.558;2024-01-15T12:09:10;98207.17;;;4.14;47.13
78839;BME280;68405;47.190;27.558;2024-01-15T12:11:46;98201.12;;;4.15;47.31
78839;BME280;68405;47.190;27.558;2024-01-15T12:14:24;98196.79;;;4.16;47.34
78839;BME280;68405;47.190;27.558;2024-01-15T12:16:56;98194.92;;;4.15;47.40
78839;BME280;68405;47.190;27.558;2024-01-15T12:19:27;98181.42;;;4.17;47.54
78839;BME280;68405;47.190;27.558;2024-01-15T12:21:59;98172.60;;;4.19;47.53
78839;BME280;68405;47.190;27.558;2024-01-15T12:24:32;98169.38;;;4.23;47.25
78839;BME280;68405;47.190;27.558;2024-01-15T12:27:05;98172.27;;;4.29;47.45
78839;BME280;68405;47.190;27.558;2024-01-15T12:29:36;98177.69;;;4.31;47.38
78839;BME280;68405;47.190;27.558;2024-01-15T12:32:09;98177.81;;;4.37;47.21
78839;BME280;68405;47.190;27.558;2024-01-15T12:34:40;98176.04;;;4.43;47.18
78839;BME280;68405;47.190;27.558;2024-01-15T12:37:13;98182.95;;;4.51;47.23
78839;BME280;68405;47.190;27.558;2024-01-15T12:39:46;98186.46;;;4.63;47.13
78839;BME280;68405;47.190;27.558;2024-01-15T12:42:23;98190.05;;;4.74;47.05
78839;BME280;68405;47.190;27.558;2024-01-15T12:44:56;98186.13;;;4.77;46.87
78839;BME280;68405;47.190;27.558;2024-01-15T12:47:38;98189.74;;;4.76;46.67
78839;BME280;68405;47.190;27.558;2024-01-15T13:16:36;98160.23;;;4.57;46.53
78839;BME280;68405;47.190;27.558;2024-01-15T13:28:15;98156.41;;;4.30;46.55
78839;BME280;68405;47.190;27.558;2024-01-15T13:30:46;98154.24;;;4.24;46.68
78839;BME280;68405;47.190;27.558;2024-01-15T13:33:18;98162.43;;;4.15;46.86
78839;BME280;68405;47.190;27.558;2024-01-15T13:35:50;98156.25;;;4.11;46.95
78839;BME280;68405;47.190;27.558;2024-01-15T13:38:22;98151.80;;;4.05;47.16
78839;BME280;68405;47.190;27.558;2024-01-15T13:40:54;98158.71;;;3.99;47.27
78839;BME280;68405;47.190;27.558;2024-01-15T13:43:27;98157.24;;;3.93;47.23
78839;BME280;68405;47.190;27.558;2024-01-15T13:45:59;98154.48;;;3.88;47.37
78839;BME280;68405;47.190;27.558;2024-01-15T13:48:32;98159.45;;;3.88;47.36
78839;BME280;68405;47.190;27.558;2024-01-15T13:51:09;98157.82;;;3.86;47.44
78839;BME280;68405;47.190;27.558;2024-01-15T13:53:48;98158.80;;;3.82;47.56
78839;BME280;68405;47.190;27.558;2024-01-15T13:56:20;98156.09;;;3.81;47.54
78839;BME280;68405;47.190;27.558;2024-01-15T13:58:52;98155.95;;;3.81;47.69
78839;BME280;68405;47.190;27.558;2024-01-15T14:01:24;98159.89;;;3.80;47.69
78839;BME280;68405;47.190;27.558;2024-01-15T14:03:56;98158.90;;;3.84;47.76
78839;BME280;68405;47.190;27.558;2024-01-15T14:06:28;98158.18;;;3.90;47.63
78839;BME280;68405;47.190;27.558;2024-01-15T14:09:01;98160.80;;;3.99;47.53
78839;BME280;68405;47.190;27.558;2024-01-15T14:11:34;98165.11;;;4.03;47.58
78839;BME280;68405;47.190;27.558;2024-01-15T14:14:06;98162.91;;;4.02;47.45
78839;BME280;68405;47.190;27.558;2024-01-15T14:16:37;98165.59;;;3.99;47.55
78839;BME280;68405;47.190;27.558;2024-01-15T14:19:09;98163.48;;;4.01;47.58
78839;BME280;68405;47.190;27.558;2024-01-15T14:21:40;98163.01;;;3.99;47.55
78839;BME280;68405;47.190;27.558;2024-01-15T14:24:13;98156.93;;;3.92;47.75
78839;BME280;68405;47.190;27.558;2024-01-15T14:26:48;98157.59;;;3.88;47.68
78839;BME280;68405;47.190;27.558;2024-01-15T14:29:20;98152.25;;;3.83;47.74
78839;BME280;68405;47.190;27.558;2024-01-15T14:31:55;98154.84;;;3.78;47.78
78839;BME280;68405;47.190;27.558;2024-01-15T14:34:48;98154.13;;;3.74;47.92
78839;BME280;68405;47.190;27.558;2024-01-15T14:37:21;98153.88;;;3.70;47.93
78839;BME280;68405;47.190;27.558;2024-01-15T14:39:53;98142.63;;;3.68;47.90
78839;BME280;68405;47.190;27.558;2024-01-15T14:42:25;98131.20;;;3.66;48.07
78839;BME280;68405;47.190;27.558;2024-01-15T14:44:58;98129.41;;;3.63;48.05
78839;BME280;68405;47.190;27.558;2024-01-15T14:47:33;98123.10;;;3.57;48.15
78839;BME280;68405;47.190;27.558;2024-01-15T14:50:07;98115.50;;;3.53;48.36
78839;BME280;68405;47.190;27.558;2024-01-15T14:52:40;98113.89;;;3.45;48.62
78839;BME280;68405;47.190;27.558;2024-01-15T14:55:16;98103.35;;;3.32;48.85
78839;BME280;68405;47.190;27.558;2024-01-15T14:57:49;98110.91;;;3.27;49.17
78839;BME280;68405;47.190;27.558;2024-01-15T15:00:23;98102.30;;;3.17;49.62
78839;BME280;68405;47.190;27.558;2024-01-15T15:03:04;98107.96;;;3.07;49.89
78839;BME280;68405;47.190;27.558;2024-01-15T15:05:45;98111.70;;;2.92;50.35
78839;BME280;68405;47.190;27.558;2024-01-15T15:08:23;98117.77;;;2.84;51.00
78839;BME280;68405;47.190;27.558;2024-01-15T15:10:56;98113.76;;;2.70;50.99
78839;BME280;68405;47.190;27.558;2024-01-15T15:13:29;98115.14;;;2.64;51.54
78839;BME280;68405;47.190;27.558;2024-01-15T15:16:05;98124.66;;;2.61;51.56
78839;BME280;68405;47.190;27.558;2024-01-15T15:18:39;98123.08;;;2.56;52.08
78839;BME280;68405;47.190;27.558;2024-01-15T15:21:13;98121.65;;;2.53;51.82
78839;BME280;68405;47.190;27.558;2024-01-15T15:23:45;98128.34;;;2.53;51.85
78839;BME280;68405;47.190;27.558;2024-01-15T15:26:18;98132.48;;;2.52;52.41
78839;BME280;68405;47.190;27.558;2024-01-15T15:29:13;98138.65;;;2.51;52.72
78839;BME280;68405;47.190;27.558;2024-01-15T15:32:00;98138.34;;;2.51;52.22
78839;BME280;68405;47.190;27.558;2024-01-15T15:34:33;98138.95;;;2.53;52.77
78839;BME280;68405;47.190;27.558;2024-01-15T15:37:06;98147.20;;;2.52;52.34
78839;BME280;68405;47.190;27.558;2024-01-15T15:39:38;98147.06;;;2.51;52.63
78839;BME280;68405;47.190;27.558;2024-01-15T15:42:11;98141.91;;;2.51;52.71
78839;BME280;68405;47.190;27.558;2024-01-15T15:44:43;98137.41;;;2.53;52.93
78839;BME280;68405;47.190;27.558;2024-01-15T15:47:18;98138.31;;;2.51;53.18
78839;BME280;68405;47.190;27.558;2024-01-15T15:49:50;98127.02;;;2.51;53.55